createdAt,value
2022-08-17T00:00:33.246Z,97931.78
2022-08-17T00:03:06.085Z,97928.16
2022-08-17T00:05:39.699Z,97923.34
2022-08-17T00:08:06.687Z,97921.00
2022-08-17T00:10:34.356Z,97924.81
2022-08-17T00:13:11.691Z,97923.69
2022-08-17T00:15:38.692Z,97932.50
2022-08-17T00:18:58.300Z,97922.38
2022-08-17T00:20:55.781Z,97920.53
2022-08-17T00:23:23.170Z,97925.19
2022-08-17T00:25:50.428Z,97925.19
2022-08-17T00:28:18.202Z,97921.84
2022-08-17T00:30:53.376Z,97916.72
2022-08-17T00:33:28.509Z,97923.84
2022-08-17T00:35:58.447Z,97924.00
2022-08-17T00:38:27.327Z,97923.81
2022-08-17T00:41:02.079Z,97926.16
2022-08-17T00:43:31.896Z,97916.50
2022-08-17T00:46:05.469Z,97924.69
2022-08-17T00:48:32.888Z,97922.47
2022-08-17T00:51:11.800Z,97930.06
2022-08-17T00:53:47.484Z,97914.91
2022-08-17T00:56:25.854Z,97930.69
2022-08-17T00:58:55.475Z,97931.69
2022-08-17T01:01:23.011Z,97920.41
2022-08-17T01:03:53.323Z,97925.75
2022-08-17T01:06:24.708Z,97922.59
2022-08-17T01:08:57.353Z,97922.25
2022-08-17T01:11:24.931Z,97915.72
2022-08-17T01:13:51.415Z,97906.91
2022-08-17T01:16:26.777Z,97906.34
2022-08-17T01:19:05.184Z,97907.97
2022-08-17T01:21:54.597Z,97901.31
2022-08-17T01:24:21.982Z,97899.16
2022-08-17T01:26:48.599Z,97905.13
2022-08-17T01:29:16.520Z,97898.16
2022-08-17T01:31:53.348Z,97903.13
2022-08-17T01:34:20.899Z,97903.63
2022-08-17T01:36:49.728Z,97915.31
2022-08-17T01:39:28.184Z,97904.97
2022-08-17T01:42:06.232Z,97906.94
2022-08-17T01:44:33.152Z,97915.59
2022-08-17T01:46:59.930Z,97913.84
2022-08-17T01:49:27.757Z,97908.97
2022-08-17T01:51:55.067Z,97916.91
2022-08-17T01:54:24.871Z,97914.91
2022-08-17T01:56:52.755Z,97921.34
2022-08-17T01:59:20.386Z,97912.06
2022-08-17T02:01:47.843Z,97925.53
2022-08-17T02:04:16.403Z,97921.69
2022-08-17T02:06:52.545Z,97921.56
2022-08-17T02:09:27.171Z,97916.97
2022-08-17T02:12:00.295Z,97918.19
2022-08-17T02:14:46.916Z,97918.56
2022-08-17T02:17:13.485Z,97923.09
2022-08-17T02:19:40.403Z,97918.47
2022-08-17T02:22:06.923Z,97916.78
2022-08-17T02:25:00.160Z,97907.31
2022-08-17T02:27:24.699Z,97913.47
2022-08-17T02:29:51.253Z,97918.16
2022-08-17T02:32:27.419Z,97909.50
2022-08-17T02:34:57.167Z,97910.81
2022-08-17T02:37:25.516Z,97899.88
2022-08-17T02:39:52.450Z,97904.88
2022-08-17T02:42:26.186Z,97902.91
2022-08-17T02:44:52.721Z,97898.41
2022-08-17T02:47:19.290Z,97892.28
2022-08-17T02:49:55.545Z,97895.09
2022-08-17T02:52:42.979Z,97900.22
2022-08-17T02:55:19.445Z,97896.91
2022-08-17T02:57:47.961Z,97900.56
2022-08-17T03:00:34.570Z,97901.88
2022-08-17T03:03:04.136Z,97895.41
2022-08-17T03:05:34.458Z,97900.38
2022-08-17T03:08:01.748Z,97888.34
2022-08-17T03:10:29.671Z,97893.75
2022-08-17T03:12:56.834Z,97899.41
2022-08-17T03:15:28.002Z,97899.97
2022-08-17T03:17:56.651Z,97906.28
2022-08-17T03:20:26.488Z,97896.69
2022-08-17T03:23:02.915Z,97897.31
2022-08-17T03:25:44.159Z,97900.91
2022-08-17T03:28:12.041Z,97891.47
2022-08-17T03:30:40.020Z,97897.06
2022-08-17T03:33:10.061Z,97889.94
2022-08-17T03:35:40.208Z,97891.59
2022-08-17T03:38:12.380Z,97895.78
2022-08-17T03:40:57.565Z,97895.56
2022-08-17T03:43:30.564Z,97899.88
2022-08-17T03:46:27.775Z,97907.28
2022-08-17T03:49:17.739Z,97912.03
2022-08-17T03:52:03.125Z,97913.94
2022-08-17T03:54:48.339Z,97912.03
2022-08-17T03:57:14.910Z,97911.28
2022-08-17T03:59:42.864Z,97911.59
2022-08-17T04:02:21.087Z,97913.94
2022-08-17T04:04:50.807Z,97912.19
2022-08-17T04:07:20.740Z,97916.91
2022-08-17T04:09:47.697Z,97918.44
2022-08-17T04:12:18.093Z,97914.09
2022-08-17T04:14:52.322Z,97911.81
2022-08-17T04:17:22.417Z,97918.78
2022-08-17T04:19:49.005Z,97912.31
2022-08-17T04:22:32.445Z,97914.47
2022-08-17T04:25:18.603Z,97911.03
2022-08-17T04:27:45.146Z,97913.88
2022-08-17T04:30:13.243Z,97916.03
2022-08-17T04:33:09.852Z,97916.66
2022-08-17T04:35:41.609Z,97915.63
2022-08-17T04:38:13.020Z,97919.97
2022-08-17T04:40:58.033Z,97918.97
2022-08-17T04:43:28.294Z,97910.25
2022-08-17T04:46:01.281Z,97918.44
2022-08-17T04:48:37.398Z,97914.84
2022-08-17T04:51:09.897Z,97917.25
2022-08-17T04:53:39.562Z,97921.97
2022-08-17T04:56:06.521Z,97921.66
2022-08-17T04:58:33.404Z,97926.41
2022-08-17T05:01:00.456Z,97932.91
2022-08-17T05:03:27.791Z,97925.31
2022-08-17T05:05:54.362Z,97928.88
2022-08-17T05:08:22.062Z,97931.19
2022-08-17T05:10:49.081Z,97929.53
2022-08-17T05:13:21.338Z,97928.59
2022-08-17T05:15:52.752Z,97933.28
2022-08-17T05:18:19.274Z,97928.69
2022-08-17T05:20:45.851Z,97934.88
2022-08-17T05:23:17.055Z,97928.72
2022-08-17T05:25:48.227Z,97924.44
2022-08-17T05:28:23.513Z,97926.31
2022-08-17T05:30:56.895Z,97916.50
2022-08-17T05:33:31.896Z,97920.34
2022-08-17T05:36:01.211Z,97908.03
2022-08-17T05:38:30.655Z,97910.69
2022-08-17T05:40:58.246Z,97912.53
2022-08-17T05:43:31.457Z,97911.38
2022-08-17T05:46:20.343Z,97904.22
2022-08-17T05:48:52.743Z,97908.06
2022-08-17T05:51:59.778Z,97893.56
2022-08-17T05:54:48.860Z,97901.91
2022-08-17T05:57:53.784Z,97911.22
2022-08-17T06:00:30.158Z,97904.38
2022-08-17T06:03:09.223Z,97895.25
2022-08-17T06:05:59.768Z,97901.22
2022-08-17T06:08:59.698Z,97895.53
2022-08-17T06:11:45.711Z,97895.34
2022-08-17T06:14:35.432Z,97899.78
2022-08-17T06:17:09.415Z,97890.91
2022-08-17T06:20:05.605Z,97893.66
2022-08-17T06:22:44.655Z,97901.31
2022-08-17T06:25:26.212Z,97897.88
2022-08-17T06:28:08.208Z,97891.88
2022-08-17T06:30:59.507Z,97899.81
2022-08-17T06:33:37.507Z,97896.81
2022-08-17T06:36:09.541Z,97895.91
2022-08-17T06:39:28.034Z,97900.50
2022-08-17T06:43:02.618Z,97900.94
2022-08-17T06:45:28.723Z,97907.00
2022-08-17T06:48:02.695Z,97904.88
2022-08-17T06:50:49.801Z,97902.78
2022-08-17T06:53:42.875Z,97899.06
2022-08-17T06:56:18.159Z,97896.44
2022-08-17T06:58:45.432Z,97899.72
2022-08-17T07:01:26.687Z,97896.25
2022-08-17T07:04:12.025Z,97896.09
2022-08-17T07:06:53.012Z,97887.63
2022-08-17T07:09:35.434Z,97886.50
2022-08-17T07:12:16.612Z,97888.88
2022-08-17T07:14:56.797Z,97887.38
2022-08-17T07:17:46.814Z,97890.03
2022-08-17T07:20:20.505Z,97881.50
2022-08-17T07:23:04.652Z,97892.13
2022-08-17T07:25:31.585Z,97892.47
2022-08-17T07:28:06.091Z,97898.38
2022-08-17T07:30:48.823Z,97909.53
2022-08-17T07:33:28.625Z,97909.66
2022-08-17T07:35:58.057Z,97916.13
2022-08-17T07:38:30.282Z,97907.00
2022-08-17T07:41:03.476Z,97907.97
2022-08-17T07:43:52.698Z,97908.22
2022-08-17T07:47:07.574Z,97916.69
2022-08-17T07:49:39.081Z,97923.22
2022-08-17T07:52:51.009Z,97909.53
2022-08-17T07:55:29.900Z,97919.72
2022-08-17T07:58:00.095Z,97910.75
2022-08-17T08:00:32.205Z,97912.25
2022-08-17T08:03:21.728Z,97911.47
2022-08-17T08:06:01.180Z,97909.25
2022-08-17T08:08:42.524Z,97916.16
2022-08-17T08:11:28.185Z,97909.97
2022-08-17T08:13:54.816Z,97908.53
2022-08-17T08:16:27.450Z,97910.44
2022-08-17T08:18:59.443Z,97913.38
2022-08-17T08:21:55.046Z,97913.84
2022-08-17T08:24:55.196Z,97912.63
2022-08-17T08:28:07.879Z,97912.72
2022-08-17T08:30:46.568Z,97920.22
2022-08-17T08:33:20.069Z,97925.81
2022-08-17T08:35:55.442Z,97927.47
2022-08-17T08:38:57.262Z,97924.16
2022-08-17T08:41:45.109Z,97910.94
2022-08-17T08:45:01.052Z,97924.63
2022-08-17T08:47:49.193Z,97922.53
2022-08-17T08:50:38.632Z,97928.13
2022-08-17T08:53:18.830Z,97923.94
2022-08-17T08:55:58.906Z,97925.41
2022-08-17T08:58:41.830Z,97936.13
2022-08-17T09:01:44.911Z,97937.78
2022-08-17T09:04:25.852Z,97928.91
2022-08-17T09:07:18.844Z,97938.84
2022-08-17T09:10:29.343Z,97945.25
2022-08-17T09:13:38.876Z,97945.06
2022-08-17T09:16:16.323Z,97940.91
2022-08-17T09:19:02.699Z,97947.34
2022-08-17T09:21:55.066Z,97952.50
2022-08-17T09:24:46.412Z,97959.53
2022-08-17T09:27:28.694Z,97959.53
2022-08-17T09:30:07.539Z,97960.19
2022-08-17T09:32:43.917Z,97955.44
2022-08-17T09:35:32.875Z,97955.84
2022-08-17T09:38:40.414Z,97960.41
2022-08-17T09:41:23.891Z,97948.41
2022-08-17T09:44:23.254Z,97952.53
2022-08-17T09:47:07.979Z,97944.06
2022-08-17T09:50:01.406Z,97947.97
2022-08-17T09:52:31.427Z,97938.84
2022-08-17T09:55:01.142Z,97941.31
2022-08-17T09:57:55.281Z,97940.94
2022-08-17T10:00:30.423Z,97927.50
2022-08-17T10:03:37.132Z,97927.28
2022-08-17T10:06:23.080Z,97930.53
2022-08-17T10:09:07.377Z,97931.75
2022-08-17T10:12:13.738Z,97937.22
2022-08-17T10:15:17.800Z,97931.59
2022-08-17T10:18:03.916Z,97931.59
2022-08-17T10:21:13.828Z,97931.59
2022-08-17T10:24:03.511Z,97925.97
2022-08-17T10:26:46.266Z,97932.59
2022-08-17T10:29:49.114Z,97931.13
2022-08-17T10:32:55.096Z,97927.81
2022-08-17T10:35:36.834Z,97929.00
2022-08-17T10:38:28.508Z,97936.47
2022-08-17T10:41:21.033Z,97933.91
2022-08-17T10:44:37.972Z,97936.31
2022-08-17T10:47:14.426Z,97931.25
2022-08-17T10:49:49.400Z,97946.56
2022-08-17T10:52:27.788Z,97946.81
2022-08-17T10:54:58.298Z,97949.56
2022-08-17T10:57:34.113Z,97955.41
2022-08-17T11:00:09.352Z,97954.38
2022-08-17T11:02:55.297Z,97948.38
2022-08-17T11:05:50.216Z,97945.25
2022-08-17T11:08:56.887Z,97948.50
2022-08-17T11:11:50.910Z,97948.00
2022-08-17T11:14:52.611Z,97943.13
2022-08-17T11:17:36.564Z,97942.13
2022-08-17T11:20:29.841Z,97949.97
2022-08-17T11:23:14.596Z,97944.75
2022-08-17T11:25:57.745Z,97954.41
2022-08-17T11:28:35.832Z,97951.69
2022-08-17T11:31:38.990Z,97952.53
2022-08-17T11:34:18.758Z,97955.66
2022-08-17T11:37:06.724Z,97951.13
2022-08-17T11:40:03.266Z,97956.75
2022-08-17T11:42:48.225Z,97951.19
2022-08-17T11:45:45.111Z,97944.94
2022-08-17T11:48:44.875Z,97943.38
2022-08-17T11:51:34.070Z,97936.63
2022-08-17T11:54:33.718Z,97936.53
2022-08-17T11:57:27.452Z,97936.72
2022-08-17T12:00:11.971Z,97937.59
2022-08-17T12:02:48.818Z,97939.72
2022-08-17T12:05:20.938Z,97930.25
2022-08-17T12:07:56.691Z,97928.22
2022-08-17T12:10:31.811Z,97936.59
2022-08-17T12:13:13.008Z,97931.53
2022-08-17T12:15:49.794Z,97930.72
2022-08-17T12:18:28.526Z,97928.06
2022-08-17T12:21:12.151Z,97932.53
2022-08-17T12:23:56.743Z,97940.41
2022-08-17T12:26:36.589Z,97925.69
2022-08-17T12:29:18.111Z,97931.91
2022-08-17T12:32:04.354Z,97943.09
2022-08-17T12:34:41.463Z,97936.78
2022-08-17T12:37:22.462Z,97931.38
2022-08-17T12:40:02.076Z,97920.31
2022-08-17T12:42:34.730Z,97916.16
2022-08-17T12:45:01.281Z,97908.13
2022-08-17T12:47:29.931Z,97904.59
2022-08-17T12:50:28.882Z,97907.25
2022-08-17T12:52:59.718Z,97904.19
2022-08-17T12:55:36.172Z,97903.16
2022-08-17T12:58:03.630Z,97897.44
2022-08-17T13:00:47.424Z,97898.16
2022-08-17T13:03:27.744Z,97891.13
2022-08-17T13:06:08.448Z,97893.41
2022-08-17T13:08:47.836Z,97890.88
2022-08-17T13:11:14.477Z,97888.91
2022-08-17T13:13:45.424Z,97896.56
2022-08-17T13:16:11.834Z,97894.69
2022-08-17T13:18:49.838Z,97894.66
2022-08-17T13:21:19.355Z,97886.09
2022-08-17T13:24:10.109Z,97883.03
2022-08-17T13:27:02.349Z,97884.56
2022-08-17T13:29:51.340Z,97880.06
2022-08-17T13:32:45.636Z,97878.91
2022-08-17T13:35:50.022Z,97886.09
2022-08-17T13:38:49.431Z,97880.78
2022-08-17T13:41:36.526Z,97882.78
2022-08-17T13:44:39.382Z,97876.91
2022-08-17T13:47:18.865Z,97880.22
2022-08-17T13:49:49.224Z,97879.63
2022-08-17T13:52:40.792Z,97880.78
2022-08-17T13:55:19.512Z,97876.09
2022-08-17T13:58:06.634Z,97865.88
2022-08-17T14:00:36.662Z,97868.41
2022-08-17T14:03:05.528Z,97861.81
2022-08-17T14:05:32.486Z,97863.97
2022-08-17T14:08:02.480Z,97862.09
2022-08-17T14:10:36.207Z,97867.03
2022-08-17T14:13:03.439Z,97854.69
2022-08-17T14:15:54.779Z,97859.13
2022-08-17T14:18:35.495Z,97857.38
2022-08-17T14:21:08.215Z,97858.31
2022-08-17T14:23:36.603Z,97853.72
2022-08-17T14:26:03.992Z,97859.25
2022-08-17T14:28:30.519Z,97859.25
2022-08-17T14:31:00.264Z,97861.25
2022-08-17T14:33:28.859Z,97858.53
2022-08-17T14:35:57.287Z,97853.59
2022-08-17T14:38:23.800Z,97858.09
2022-08-17T14:40:50.530Z,97853.97
2022-08-17T14:43:18.398Z,97857.41
2022-08-17T14:45:45.015Z,97856.59
2022-08-17T14:48:11.779Z,97855.06
2022-08-17T14:50:41.739Z,97854.44
2022-08-17T14:53:13.310Z,97847.28
2022-08-17T14:55:40.853Z,97853.72
2022-08-17T14:58:09.004Z,97859.94
2022-08-17T15:00:35.838Z,97864.81
2022-08-17T15:03:03.764Z,97850.72
2022-08-17T15:05:36.419Z,97857.06
2022-08-17T15:08:05.405Z,97865.41
2022-08-17T15:10:33.157Z,97864.59
2022-08-17T15:13:00.442Z,97852.44
2022-08-17T15:15:28.689Z,97845.63
2022-08-17T15:17:55.681Z,97843.91
2022-08-17T15:20:27.837Z,97850.09
2022-08-17T15:22:57.231Z,97857.03
2022-08-17T15:25:27.489Z,97857.56
2022-08-17T15:27:55.717Z,97847.75
2022-08-17T15:30:22.944Z,97848.06
2022-08-17T15:32:51.174Z,97853.09
2022-08-17T15:35:27.077Z,97852.50
2022-08-17T15:37:54.313Z,97868.84
2022-08-17T15:40:20.850Z,97867.50
2022-08-17T15:42:47.378Z,97877.38
2022-08-17T15:45:16.446Z,97872.97
2022-08-17T15:47:43.230Z,97874.47
2022-08-17T15:50:10.750Z,97877.31
2022-08-17T15:52:40.199Z,97874.59
2022-08-17T15:55:11.957Z,97859.28
2022-08-17T15:57:39.888Z,97857.06
2022-08-17T16:00:09.487Z,97854.19
2022-08-17T16:03:45.925Z,97855.50
2022-08-17T16:05:28.456Z,97857.00
2022-08-17T16:07:59.441Z,97869.53
2022-08-17T16:10:34.847Z,97868.56
2022-08-17T16:13:03.859Z,97860.78
2022-08-17T16:15:33.139Z,97870.38
2022-08-17T16:17:59.751Z,97870.38
2022-08-17T16:20:26.803Z,97865.34
2022-08-17T16:22:54.838Z,97875.25
2022-08-17T16:25:38.409Z,97869.41
2022-08-17T16:28:18.409Z,97880.41
2022-08-17T16:30:45.355Z,97881.06
2022-08-17T16:33:12.535Z,97883.91
2022-08-17T16:35:39.435Z,97885.41
2022-08-17T16:38:07.207Z,97881.53
2022-08-17T16:40:35.823Z,97866.31
2022-08-17T16:43:06.940Z,97865.19
2022-08-17T16:45:36.827Z,97870.44
2022-08-17T16:48:04.327Z,97876.75
2022-08-17T16:50:31.794Z,97884.91
2022-08-17T16:53:11.705Z,97877.94
2022-08-17T16:55:38.562Z,97881.28
2022-08-17T16:58:06.789Z,97891.13
2022-08-17T17:00:34.462Z,97895.91
2022-08-17T17:03:19.451Z,97894.41
2022-08-17T17:06:18.710Z,97896.53
2022-08-17T17:09:02.434Z,97896.38
2022-08-17T17:11:41.323Z,97898.84
2022-08-17T17:14:21.919Z,97899.13
2022-08-17T17:16:57.693Z,97895.84
2022-08-17T17:19:35.864Z,97905.25
2022-08-17T17:22:12.675Z,97913.97
2022-08-17T17:25:15.911Z,97911.34
2022-08-17T17:28:00.502Z,97914.63
2022-08-17T17:30:45.481Z,97920.84
2022-08-17T17:33:29.702Z,97926.56
2022-08-17T17:36:10.351Z,97923.69
2022-08-17T17:38:49.857Z,97923.09
2022-08-17T17:41:26.882Z,97920.41
2022-08-17T17:44:07.903Z,97916.72
2022-08-17T17:46:43.658Z,97927.56
2022-08-17T17:49:11.239Z,97931.31
2022-08-17T17:52:07.642Z,97937.56
2022-08-17T17:55:02.140Z,97938.69
2022-08-17T17:58:08.941Z,97942.47
2022-08-17T18:01:07.246Z,97938.78
2022-08-17T18:03:55.839Z,97949.56
2022-08-17T18:06:48.634Z,97952.72
2022-08-17T18:09:43.407Z,97953.94
2022-08-17T18:12:56.809Z,97950.63
2022-08-17T18:15:36.988Z,97950.88
2022-08-17T18:18:15.476Z,97947.34
2022-08-17T18:20:55.925Z,97953.78
2022-08-17T18:23:28.001Z,97962.88
2022-08-17T18:25:56.334Z,97956.66
2022-08-17T18:28:43.896Z,97950.47
2022-08-17T18:31:20.383Z,97950.91
2022-08-17T18:33:54.612Z,97955.81
2022-08-17T18:36:36.377Z,97964.50
2022-08-17T18:39:14.646Z,97970.28
2022-08-17T18:41:45.588Z,97974.41
2022-08-17T18:44:43.667Z,97972.94
2022-08-17T18:47:29.375Z,97979.53
2022-08-17T18:50:41.268Z,97979.50
2022-08-17T18:53:33.445Z,97984.63
2022-08-17T18:56:26.176Z,97979.41
2022-08-17T18:59:09.539Z,97988.06
2022-08-17T19:01:52.469Z,97988.66
2022-08-17T19:04:35.550Z,97999.09
2022-08-17T19:07:23.690Z,97998.03
2022-08-17T19:10:16.265Z,98005.75
2022-08-17T19:13:12.690Z,98012.28
2022-08-17T19:16:13.990Z,98019.97
2022-08-17T19:19:14.320Z,98022.94
2022-08-17T19:21:53.036Z,98030.47
2022-08-17T19:24:24.492Z,98029.47
2022-08-17T19:27:13.956Z,98033.75
2022-08-17T19:29:57.789Z,98039.63
2022-08-17T19:32:30.716Z,98033.19
2022-08-17T19:34:58.090Z,98038.63
2022-08-17T19:38:12.773Z,98038.34
2022-08-17T19:41:01.684Z,98033.63
2022-08-17T19:44:14.092Z,98040.94
2022-08-17T19:47:00.805Z,98037.41
2022-08-17T19:50:08.408Z,98045.69
2022-08-17T19:52:50.061Z,98051.78
2022-08-17T19:55:59.798Z,98059.09
2022-08-17T19:58:53.590Z,98063.63
2022-08-17T20:01:43.242Z,98072.91
2022-08-17T20:04:31.915Z,98064.84
2022-08-17T20:07:09.215Z,98069.94
2022-08-17T20:09:47.328Z,98067.91
2022-08-17T20:12:20.840Z,98069.59
2022-08-17T20:14:58.322Z,98076.75
2022-08-17T20:17:35.189Z,98066.13
2022-08-17T20:20:20.243Z,98070.53
2022-08-17T20:22:59.071Z,98075.44
2022-08-17T20:26:10.606Z,98079.94
2022-08-17T20:28:41.373Z,98090.09
2022-08-17T20:31:49.503Z,98093.91
2022-08-17T20:34:34.867Z,98084.72
2022-08-17T20:37:28.062Z,98084.38
2022-08-17T20:39:57.648Z,98089.38
2022-08-17T20:42:24.290Z,98084.56
2022-08-17T20:45:26.282Z,98079.44
2022-08-17T20:48:27.280Z,98086.19
2022-08-17T20:50:55.945Z,98076.06
2022-08-17T20:53:47.393Z,98077.66
2022-08-17T20:56:43.356Z,98070.69
2022-08-17T20:59:30.198Z,98077.59
2022-08-17T21:02:18.566Z,98074.75
2022-08-17T21:05:02.260Z,98077.44
2022-08-17T21:07:42.870Z,98076.94
2022-08-17T21:10:21.085Z,98075.47
2022-08-17T21:13:13.294Z,98079.44
2022-08-17T21:16:00.358Z,98080.41
2022-08-17T21:19:08.449Z,98079.31
2022-08-17T21:21:58.240Z,98089.66
2022-08-17T21:25:20.269Z,98091.81
2022-08-17T21:28:13.242Z,98094.00
2022-08-17T21:30:39.805Z,98096.66
2022-08-17T21:33:32.070Z,98107.81
2022-08-17T21:36:14.163Z,98123.00
2022-08-17T21:38:43.934Z,98103.81
2022-08-17T21:41:29.764Z,98110.13
2022-08-17T21:44:27.791Z,98102.44
2022-08-17T21:47:25.951Z,98100.78
2022-08-17T21:49:55.511Z,98101.16
2022-08-17T21:52:27.443Z,98103.31
2022-08-17T21:55:02.209Z,98112.81
2022-08-17T21:57:30.835Z,98121.16
2022-08-17T22:00:02.206Z,98125.16
2022-08-17T22:02:35.256Z,98126.16
2022-08-17T22:05:07.829Z,98125.50
2022-08-17T22:07:59.801Z,98120.97
2022-08-17T22:10:33.517Z,98126.50
2022-08-17T22:13:17.034Z,98121.84
2022-08-17T22:16:15.225Z,98131.81
2022-08-17T22:18:53.953Z,98135.34
2022-08-17T22:21:22.433Z,98136.34
2022-08-17T22:24:21.655Z,98138.38
2022-08-17T22:27:03.325Z,98132.84
2022-08-17T22:29:58.516Z,98135.00
2022-08-17T22:32:41.345Z,98134.50
2022-08-17T22:35:32.456Z,98129.34
2022-08-17T22:38:20.575Z,98128.53
2022-08-17T22:40:52.717Z,98129.84
2022-08-17T22:43:28.383Z,98130.81
2022-08-17T22:46:00.140Z,98130.50
2022-08-17T22:48:30.294Z,98124.53
2022-08-17T22:51:14.210Z,98132.16
2022-08-17T22:54:36.752Z,98124.84
2022-08-17T22:57:24.044Z,98123.84
2022-08-17T22:59:54.714Z,98124.03
2022-08-17T23:02:27.085Z,98122.50
2022-08-17T23:05:13.787Z,98125.84
2022-08-17T23:07:42.495Z,98120.34
2022-08-17T23:10:11.592Z,98118.19
2022-08-17T23:12:39.707Z,98121.69
2022-08-17T23:15:15.336Z,98124.69
2022-08-17T23:17:42.413Z,98135.53
2022-08-17T23:20:14.878Z,98137.50
2022-08-17T23:22:52.131Z,98139.00
2022-08-17T23:25:28.327Z,98140.47
2022-08-17T23:27:57.253Z,98137.63
2022-08-17T23:30:25.463Z,98140.16
2022-08-17T23:32:54.332Z,98139.31
2022-08-17T23:35:39.616Z,98146.44
2022-08-17T23:38:13.462Z,98139.75
2022-08-17T23:40:40.956Z,98142.03
2022-08-17T23:43:17.650Z,98137.00
2022-08-17T23:45:53.879Z,98143.09
2022-08-17T23:48:32.482Z,98142.41
2022-08-17T23:51:12.569Z,98141.22
2022-08-17T23:53:46.216Z,98136.91
2022-08-17T23:56:13.958Z,98135.88
2022-08-17T23:58:43.310Z,98141.53
